sensor_id;sensor_type;location;lat;lon;timestamp;pressure;altitude;pressure_sealevel;temperature
19196;BMP280;9730;48.926;11.376;2023-01-19T00:01:43;96122.09;;;0.58
19196;BMP280;9730;48.926;11.376;2023-01-19T00:04:09;96120.53;;;0.54
19196;BMP280;9730;48.926;11.376;2023-01-19T00:06:36;96125.97;;;0.67
19196;BMP280;9730;48.926;11.376;2023-01-19T00:09:02;96126.09;;;0.62
19196;BMP280;9730;48.926;11.376;2023-01-19T00:11:29;96127.66;;;0.66
19196;BMP280;9730;48.926;11.376;2023-01-19T00:13:55;96137.78;;;0.86
19196;BMP280;9730;48.926;11.376;2023-01-19T00:16:23;96131.56;;;0.73
19196;BMP280;9730;48.926;11.376;2023-01-19T00:18:51;96139.75;;;0.75
19196;BMP280;9730;48.926;11.376;2023-01-19T00:21:18;96128.50;;;0.65
19196;BMP280;9730;48.926;11.376;2023-01-19T00:23:45;96122.97;;;0.56
19196;BMP280;9730;48.926;11.376;2023-01-19T00:26:13;96133.41;;;0.38
19196;BMP280;9730;48.926;11.376;2023-01-19T00:28:40;96128.03;;;0.24
19196;BMP280;9730;48.926;11.376;2023-01-19T00:31:07;96139.13;;;0.42
19196;BMP280;9730;48.926;11.376;2023-01-19T00:33:33;96152.09;;;0.51
19196;BMP280;9730;48.926;11.376;2023-01-19T00:36:02;96158.50;;;0.56
19196;BMP280;9730;48.926;11.376;2023-01-19T00:38:28;96170.16;;;0.54
19196;BMP280;9730;48.926;11.376;2023-01-19T00:40:55;96175.97;;;0.53
19196;BMP280;9730;48.926;11.376;2023-01-19T00:43:21;96169.81;;;0.38
19196;BMP280;9730;48.926;11.376;2023-01-19T00:45:47;96177.19;;;0.41
19196;BMP280;9730;48.926;11.376;2023-01-19T00:48:14;96188.59;;;0.46
19196;BMP280;9730;48.926;11.376;2023-01-19T00:50:40;96198.16;;;0.59
19196;BMP280;9730;48.926;11.376;2023-01-19T00:53:08;96204.81;;;0.57
19196;BMP280;9730;48.926;11.376;2023-01-19T00:55:35;96190.00;;;0.54
19196;BMP280;9730;48.926;11.376;2023-01-19T00:58:01;96196.75;;;0.51
19196;BMP280;9730;48.926;11.376;2023-01-19T01:00:28;96202.91;;;0.37
19196;BMP280;9730;48.926;11.376;2023-01-19T01:02:54;96202.81;;;0.40
19196;BMP280;9730;48.926;11.376;2023-01-19T01:05:21;96193.44;;;0.20
19196;BMP280;9730;48.926;11.376;2023-01-19T01:07:48;96201.44;;;-0.01
19196;BMP280;9730;48.926;11.376;2023-01-19T01:10:18;96206.44;;;-0.02
19196;BMP280;9730;48.926;11.376;2023-01-19T01:12:46;96203.44;;;0.17
19196;BMP280;9730;48.926;11.376;2023-01-19T01:15:14;96216.00;;;0.11
19196;BMP280;9730;48.926;11.376;2023-01-19T01:17:41;96219.88;;;0.21
19196;BMP280;9730;48.926;11.376;2023-01-19T01:20:13;96226.47;;;0.22
19196;BMP280;9730;48.926;11.376;2023-01-19T01:22:43;96238.25;;;0.14
19196;BMP280;9730;48.926;11.376;2023-01-19T01:25:11;96231.38;;;0.24
19196;BMP280;9730;48.926;11.376;2023-01-19T01:27:39;96239.78;;;0.18
19196;BMP280;9730;48.926;11.376;2023-01-19T01:30:06;96250.75;;;0.10
19196;BMP280;9730;48.926;11.376;2023-01-19T01:32:33;96244.25;;;0.06
19196;BMP280;9730;48.926;11.376;2023-01-19T01:35:00;96254.00;;;0.12
19196;BMP280;9730;48.926;11.376;2023-01-19T01:37:27;96265.31;;;0.22
19196;BMP280;9730;48.926;11.376;2023-01-19T01:39:53;96265.09;;;0.31
19196;BMP280;9730;48.926;11.376;2023-01-19T01:42:26;96274.09;;;0.35
19196;BMP280;9730;48.926;11.376;2023-01-19T01:44:56;96279.81;;;0.37
19196;BMP280;9730;48.926;11.376;2023-01-19T01:47:27;96283.84;;;0.41
19196;BMP280;9730;48.926;11.376;2023-01-19T01:50:00;96281.75;;;0.26
19196;BMP280;9730;48.926;11.376;2023-01-19T01:52:30;96286.63;;;0.29
19196;BMP280;9730;48.926;11.376;2023-01-19T01:54:58;96288.19;;;0.33
19196;BMP280;9730;48.926;11.376;2023-01-19T01:57:25;96282.44;;;0.31
19196;BMP280;9730;48.926;11.376;2023-01-19T01:59:55;96280.97;;;0.24
19196;BMP280;9730;48.926;11.376;2023-01-19T02:02:24;96285.66;;;0.34
19196;BMP280;9730;48.926;11.376;2023-01-19T02:05:13;96279.09;;;0.33
19196;BMP280;9730;48.926;11.376;2023-01-19T02:07:45;96277.44;;;0.32
19196;BMP280;9730;48.926;11.376;2023-01-19T02:10:30;96292.66;;;0.51
19196;BMP280;9730;48.926;11.376;2023-01-19T02:13:15;96283.97;;;0.36
19196;BMP280;9730;48.926;11.376;2023-01-19T02:15:48;96286.38;;;0.39
19196;BMP280;9730;48.926;11.376;2023-01-19T02:18:16;96279.88;;;0.34
19196;BMP280;9730;48.926;11.376;2023-01-19T02:20:47;96267.66;;;0.28
19196;BMP280;9730;48.926;11.376;2023-01-19T02:23:19;96273.16;;;0.37
19196;BMP280;9730;48.926;11.376;2023-01-19T02:25:52;96265.81;;;0.34
19196;BMP280;9730;48.926;11.376;2023-01-19T02:28:18;96254.72;;;0.17
19196;BMP280;9730;48.926;11.376;2023-01-19T02:30:45;96256.25;;;0.21
19196;BMP280;9730;48.926;11.376;2023-01-19T02:33:12;96264.34;;;0.27
19196;BMP280;9730;48.926;11.376;2023-01-19T02:35:39;96268.41;;;0.30
19196;BMP280;9730;48.926;11.376;2023-01-19T02:38:07;96279.03;;;0.35
19196;BMP280;9730;48.926;11.376;2023-01-19T02:40:34;96279.88;;;0.34
19196;BMP280;9730;48.926;11.376;2023-01-19T02:43:05;96281.59;;;0.32
19196;BMP280;9730;48.926;11.376;2023-01-19T02:45:34;96275.16;;;0.25
19196;BMP280;9730;48.926;11.376;2023-01-19T02:48:02;96276.78;;;0.26
19196;BMP280;9730;48.926;11.376;2023-01-19T02:50:38;96272.91;;;0.16
19196;BMP280;9730;48.926;11.376;2023-01-19T02:53:24;96287.03;;;0.14
19196;BMP280;9730;48.926;11.376;2023-01-19T02:55:55;96283.19;;;0.01
19196;BMP280;9730;48.926;11.376;2023-01-19T02:58:29;96273.16;;;0.05
19196;BMP280;9730;48.926;11.376;2023-01-19T03:01:05;96291.16;;;0.13
19196;BMP280;9730;48.926;11.376;2023-01-19T03:03:41;96302.41;;;0.26
19196;BMP280;9730;48.926;11.376;2023-01-19T03:06:19;96289.47;;;0.15
19196;BMP280;9730;48.926;11.376;2023-01-19T03:08:52;96290.31;;;0.14
19196;BMP280;9730;48.926;11.376;2023-01-19T03:11:23;96287.16;;;0.08
19196;BMP280;9730;48.926;11.376;2023-01-19T03:13:55;96277.94;;;0.13
19196;BMP280;9730;48.926;11.376;2023-01-19T03:16:27;96284.63;;;0.09
19196;BMP280;9730;48.926;11.376;2023-01-19T03:18:58;96277.19;;;0.09
19196;BMP280;9730;48.926;11.376;2023-01-19T03:21:29;96284.56;;;0.14
19196;BMP280;9730;48.926;11.376;2023-01-19T03:23:59;96285.59;;;0.04
19196;BMP280;9730;48.926;11.376;2023-01-19T03:26:28;96287.38;;;-0.01
19196;BMP280;9730;48.926;11.376;2023-01-19T03:28:59;96282.59;;;-0.08
19196;BMP280;9730;48.926;11.376;2023-01-19T03:31:29;96281.19;;;-0.18
19196;BMP280;9730;48.926;11.376;2023-01-19T03:34:00;96263.31;;;-0.31
19196;BMP280;9730;48.926;11.376;2023-01-19T03:36:30;96267.34;;;-0.27
19196;BMP280;9730;48.926;11.376;2023-01-19T03:38:59;96263.50;;;-0.38
19196;BMP280;9730;48.926;11.376;2023-01-19T03:41:29;96271.81;;;-0.41
19196;BMP280;9730;48.926;11.376;2023-01-19T03:43:59;96276.63;;;-0.35
19196;BMP280;9730;48.926;11.376;2023-01-19T03:46:25;96289.66;;;-0.27
19196;BMP280;9730;48.926;11.376;2023-01-19T03:48:53;96284.09;;;-0.36
19196;BMP280;9730;48.926;11.376;2023-01-19T03:51:20;96284.09;;;-0.36
19196;BMP280;9730;48.926;11.376;2023-01-19T03:53:47;96296.53;;;-0.38
19196;BMP280;9730;48.926;11.376;2023-01-19T03:56:19;96304.88;;;-0.42
19196;BMP280;9730;48.926;11.376;2023-01-19T03:58:46;96312.28;;;-0.42
19196;BMP280;9730;48.926;11.376;2023-01-19T04:01:15;96287.56;;;-0.43
19196;BMP280;9730;48.926;11.376;2023-01-19T04:03:42;96295.25;;;-0.53
19196;BMP280;9730;48.926;11.376;2023-01-19T04:06:11;96291.34;;;-0.63
19196;BMP280;9730;48.926;11.376;2023-01-19T04:08:37;96292.03;;;-0.58
19196;BMP280;9730;48.926;11.376;2023-01-19T04:11:05;96286.44;;;-1.04
19196;BMP280;9730;48.926;11.376;2023-01-19T04:13:32;96290.47;;;-1.00
19196;BMP280;9730;48.926;11.376;2023-01-19T04:15:59;96303.78;;;-1.06
19196;BMP280;9730;48.926;11.376;2023-01-19T04:18:27;96307.50;;;-1.26
19196;BMP280;9730;48.926;11.376;2023-01-19T04:20:54;96317.31;;;-1.23
19196;BMP280;9730;48.926;11.376;2023-01-19T04:23:21;96312.44;;;-1.26
19196;BMP280;9730;48.926;11.376;2023-01-19T04:25:48;96304.25;;;-1.28
19196;BMP280;9730;48.926;11.376;2023-01-19T04:28:14;96304.13;;;-1.22
19196;BMP280;9730;48.926;11.376;2023-01-19T04:30:41;96300.09;;;-1.27
19196;BMP280;9730;48.926;11.376;2023-01-19T04:33:07;96300.34;;;-1.39
19196;BMP280;9730;48.926;11.376;2023-01-19T04:35:35;96307.06;;;-1.46
19196;BMP280;9730;48.926;11.376;2023-01-19T04:38:02;96299.03;;;-1.58
19196;BMP280;9730;48.926;11.376;2023-01-19T04:40:28;96303.50;;;-1.78
19196;BMP280;9730;48.926;11.376;2023-01-19T04:42:56;96301.25;;;-1.88
19196;BMP280;9730;48.926;11.376;2023-01-19T04:45:22;96298.91;;;-1.97
19196;BMP280;9730;48.926;11.376;2023-01-19T04:47:49;96302.41;;;-2.09
19196;BMP280;9730;48.926;11.376;2023-01-19T04:50:15;96308.88;;;-2.02
19196;BMP280;9730;48.926;11.376;2023-01-19T04:52:44;96321.97;;;-1.97
19196;BMP280;9730;48.926;11.376;2023-01-19T04:55:11;96329.34;;;-1.94
19196;BMP280;9730;48.926;11.376;2023-01-19T04:57:37;96324.41;;;-1.95
19196;BMP280;9730;48.926;11.376;2023-01-19T05:00:05;96327.72;;;-1.96
19196;BMP280;9730;48.926;11.376;2023-01-19T05:02:32;96332.88;;;-2.08
19196;BMP280;9730;48.926;11.376;2023-01-19T05:04:58;96331.91;;;-2.00
19196;BMP280;9730;48.926;11.376;2023-01-19T05:07:25;96329.59;;;-2.10
19196;BMP280;9730;48.926;11.376;2023-01-19T05:09:53;96345.06;;;-1.98
19196;BMP280;9730;48.926;11.376;2023-01-19T05:12:20;96343.41;;;-1.99
19196;BMP280;9730;48.926;11.376;2023-01-19T05:14:46;96345.44;;;-2.21
19196;BMP280;9730;48.926;11.376;2023-01-19T05:17:13;96347.78;;;-2.14
19196;BMP280;9730;48.926;11.376;2023-01-19T05:19:40;96347.13;;;-2.25
19196;BMP280;9730;48.926;11.376;2023-01-19T05:22:06;96346.28;;;-2.24
19196;BMP280;9730;48.926;11.376;2023-01-19T05:24:33;96359.31;;;-2.13
19196;BMP280;9730;48.926;11.376;2023-01-19T05:27:01;96361.03;;;-2.19
19196;BMP280;9730;48.926;11.376;2023-01-19T05:29:28;96343.16;;;-2.35
19196;BMP280;9730;48.926;11.376;2023-01-19T05:31:55;96342.63;;;-2.53
19196;BMP280;9730;48.926;11.376;2023-01-19T05:34:22;96342.41;;;-2.41
19196;BMP280;9730;48.926;11.376;2023-01-19T05:36:48;96353.16;;;-2.42
19196;BMP280;9730;48.926;11.376;2023-01-19T05:39:15;96340.97;;;-2.54
19196;BMP280;9730;48.926;11.376;2023-01-19T05:41:41;96354.00;;;-2.45
19196;BMP280;9730;48.926;11.376;2023-01-19T05:44:11;96362.19;;;-2.43
19196;BMP280;9730;48.926;11.376;2023-01-19T05:46:38;96359.72;;;-2.41
19196;BMP280;9730;48.926;11.376;2023-01-19T05:49:04;96366.34;;;-2.45
19196;BMP280;9730;48.926;11.376;2023-01-19T05:51:31;96373.78;;;-2.46
19196;BMP280;9730;48.926;11.376;2023-01-19T05:54:02;96363.97;;;-2.51
19196;BMP280;9730;48.926;11.376;2023-01-19T05:56:29;96369.69;;;-2.49
19196;BMP280;9730;48.926;11.376;2023-01-19T05:58:55;96372.25;;;-2.55
19196;BMP280;9730;48.926;11.376;2023-01-19T06:01:23;96368.16;;;-2.56
19196;BMP280;9730;48.926;11.376;2023-01-19T06:03:50;96369.91;;;-2.65
19196;BMP280;9730;48.926;11.376;2023-01-19T06:06:17;96369.19;;;-2.73
19196;BMP280;9730;48.926;11.376;2023-01-19T06:08:44;96375.59;;;-2.57
19196;BMP280;9730;48.926;11.376;2023-01-19T06:11:11;96379.72;;;-2.58
19196;BMP280;9730;48.926;11.376;2023-01-19T06:13:37;96381.31;;;-2.57
19196;BMP280;9730;48.926;11.376;2023-01-19T06:16:06;96381.38;;;-2.60
19196;BMP280;9730;48.926;11.376;2023-01-19T06:18:34;96387.19;;;-2.64
19196;BMP280;9730;48.926;11.376;2023-01-19T06:21:04;96383.81;;;-2.58
19196;BMP280;9730;48.926;11.376;2023-01-19T06:23:32;96400.19;;;-2.51
19196;BMP280;9730;48.926;11.376;2023-01-19T06:25:59;96403.50;;;-2.52
19196;BMP280;9730;48.926;11.376;2023-01-19T06:28:26;96398.53;;;-2.51
19196;BMP280;9730;48.926;11.376;2023-01-19T06:30:54;96406.00;;;-2.57
19196;BMP280;9730;48.926;11.376;2023-01-19T06:33:22;96398.72;;;-2.64
19196;BMP280;9730;48.926;11.376;2023-01-19T06:35:50;96413.59;;;-2.68
19196;BMP280;9730;48.926;11.376;2023-01-19T06:38:17;96413.66;;;-2.74
19196;BMP280;9730;48.926;11.376;2023-01-19T06:40:44;96403.09;;;-2.85
19196;BMP280;9730;48.926;11.376;2023-01-19T06:43:11;96406.44;;;-2.92
19196;BMP280;9730;48.926;11.376;2023-01-19T06:45:38;96408.16;;;-2.97
19196;BMP280;9730;48.926;11.376;2023-01-19T06:48:05;96408.22;;;-3.02
19196;BMP280;9730;48.926;11.376;2023-01-19T06:50:31;96408.16;;;-2.96
19196;BMP280;9730;48.926;11.376;2023-01-19T06:52:59;96419.59;;;-2.90
19196;BMP280;9730;48.926;11.376;2023-01-19T06:55:26;96429.22;;;-2.69
19196;BMP280;9730;48.926;11.376;2023-01-19T06:57:55;96440.81;;;-2.76
19196;BMP280;9730;48.926;11.376;2023-01-19T07:00:23;96439.16;;;-2.74
19196;BMP280;9730;48.926;11.376;2023-01-19T07:02:50;96451.41;;;-2.66
19196;BMP280;9730;48.926;11.376;2023-01-19T07:05:16;96469.41;;;-2.59
19196;BMP280;9730;48.926;11.376;2023-01-19T07:07:43;96471.06;;;-2.58
19196;BMP280;9730;48.926;11.376;2023-01-19T07:10:11;96471.09;;;-2.59
19196;BMP280;9730;48.926;11.376;2023-01-19T07:12:40;96474.34;;;-2.59
19196;BMP280;9730;48.926;11.376;2023-01-19T07:15:08;96479.28;;;-2.59
19196;BMP280;9730;48.926;11.376;2023-01-19T07:17:36;96472.69;;;-2.58
19196;BMP280;9730;48.926;11.376;2023-01-19T07:20:03;96484.25;;;-2.60
19196;BMP280;9730;48.926;11.376;2023-01-19T07:22:29;96486.03;;;-2.71
19196;BMP280;9730;48.926;11.376;2023-01-19T07:24:56;96495.84;;;-2.66
19196;BMP280;9730;48.926;11.376;2023-01-19T07:27:25;96500.78;;;-2.66
19196;BMP280;9730;48.926;11.376;2023-01-19T07:29:52;96503.19;;;-2.62
19196;BMP280;9730;48.926;11.376;2023-01-19T07:32:18;96499.19;;;-2.72
19196;BMP280;9730;48.926;11.376;2023-01-19T07:34:45;96496.88;;;-2.84
19196;BMP280;9730;48.926;11.376;2023-01-19T07:37:11;96494.41;;;-2.85
19196;BMP280;9730;48.926;11.376;2023-01-19T07:39:38;96501.06;;;-2.92
19196;BMP280;9730;48.926;11.376;2023-01-19T07:42:05;96503.41;;;-2.78
19196;BMP280;9730;48.926;11.376;2023-01-19T07:44:33;96504.97;;;-2.74
19196;BMP280;9730;48.926;11.376;2023-01-19T07:47:00;96518.44;;;-2.30
19196;BMP280;9730;48.926;11.376;2023-01-19T07:49:26;96525.94;;;-2.35
19196;BMP280;9730;48.926;11.376;2023-01-19T07:51:53;96534.00;;;-2.21
19196;BMP280;9730;48.926;11.376;2023-01-19T07:54:20;96543.72;;;-2.08
19196;BMP280;9730;48.926;11.376;2023-01-19T07:56:47;96540.63;;;-2.23
19196;BMP280;9730;48.926;11.376;2023-01-19T07:59:13;96544.47;;;-2.03
19196;BMP280;9730;48.926;11.376;2023-01-19T08:01:41;96549.41;;;-2.01
19196;BMP280;9730;48.926;11.376;2023-01-19T08:04:08;96550.28;;;-2.07
19196;BMP280;9730;48.926;11.376;2023-01-19T08:06:38;96542.38;;;-2.34
19196;BMP280;9730;48.926;11.376;2023-01-19T08:09:05;96540.53;;;-2.17
19196;BMP280;9730;48.926;11.376;2023-01-19T08:11:32;96548.09;;;-2.27
19196;BMP280;9730;48.926;11.376;2023-01-19T08:13:59;96539.88;;;-2.31
19196;BMP280;9730;48.926;11.376;2023-01-19T08:16:26;96537.19;;;-2.13
19196;BMP280;9730;48.926;11.376;2023-01-19T08:18:54;96553.38;;;-1.91
19196;BMP280;9730;48.926;11.376;2023-01-19T08:21:21;96548.44;;;-1.91
19196;BMP280;9730;48.926;11.376;2023-01-19T08:23:51;96558.34;;;-1.91
19196;BMP280;9730;48.926;11.376;2023-01-19T08:26:18;96553.44;;;-1.94
19196;BMP280;9730;48.926;11.376;2023-01-19T08:28:45;96550.00;;;-1.84
19196;BMP280;9730;48.926;11.376;2023-01-19T08:31:12;96553.28;;;-1.84
19196;BMP280;9730;48.926;11.376;2023-01-19T08:33:38;96554.94;;;-1.84
19196;BMP280;9730;48.926;11.376;2023-01-19T08:36:07;96572.06;;;-1.69
19196;BMP280;9730;48.926;11.376;2023-01-19T08:38:34;96568.03;;;-1.78
19196;BMP280;9730;48.926;11.376;2023-01-19T08:41:01;96571.44;;;-1.86
19196;BMP280;9730;48.926;11.376;2023-01-19T08:43:27;96566.50;;;-1.88
19196;BMP280;9730;48.926;11.376;2023-01-19T08:45:54;96571.97;;;-1.63
19196;BMP280;9730;48.926;11.376;2023-01-19T08:48:21;96583.66;;;-1.74
19196;BMP280;9730;48.926;11.376;2023-01-19T08:50:49;96578.63;;;-1.68
19196;BMP280;9730;48.926;11.376;2023-01-19T08:53:18;96567.28;;;-1.83
19196;BMP280;9730;48.926;11.376;2023-01-19T08:55:45;96571.41;;;-1.85
19196;BMP280;9730;48.926;11.376;2023-01-19T08:58:12;96563.19;;;-1.85
19196;BMP280;9730;48.926;11.376;2023-01-19T09:00:38;96564.69;;;-1.75
19196;BMP280;9730;48.926;11.376;2023-01-19T09:03:06;96583.78;;;-1.85
19196;BMP280;9730;48.926;11.376;2023-01-19T09:05:34;96572.91;;;-1.72
19196;BMP280;9730;48.926;11.376;2023-01-19T09:08:05;96584.19;;;-1.52
19196;BMP280;9730;48.926;11.376;2023-01-19T09:10:34;96594.59;;;-1.32
19196;BMP280;9730;48.926;11.376;2023-01-19T09:13:02;96591.94;;;-1.20
19196;BMP280;9730;48.926;11.376;2023-01-19T09:15:29;96598.34;;;-1.07
19196;BMP280;9730;48.926;11.376;2023-01-19T09:17:58;96583.34;;;-1.00
19196;BMP280;9730;48.926;11.376;2023-01-19T09:20:25;96579.41;;;-1.11
19196;BMP280;9730;48.926;11.376;2023-01-19T09:22:54;96584.19;;;-0.99
19196;BMP280;9730;48.926;11.376;2023-01-19T09:25:20;96585.94;;;-1.06
19196;BMP280;9730;48.926;11.376;2023-01-19T09:27:48;96588.88;;;-0.84
19196;BMP280;9730;48.926;11.376;2023-01-19T09:30:16;96587.31;;;-0.90
19196;BMP280;9730;48.926;11.376;2023-01-19T09:32:43;96573.41;;;-0.97
19196;BMP280;9730;48.926;11.376;2023-01-19T09:35:10;96575.56;;;-0.79
19196;BMP280;9730;48.926;11.376;2023-01-19T09:37:37;96575.63;;;-0.82
19196;BMP280;9730;48.926;11.376;2023-01-19T09:40:04;96582.03;;;-0.70
19196;BMP280;9730;48.926;11.376;2023-01-19T09:42:36;96582.06;;;-0.72
19196;BMP280;9730;48.926;11.376;2023-01-19T09:45:12;96584.44;;;-0.64
19196;BMP280;9730;48.926;11.376;2023-01-19T09:47:40;96568.03;;;-0.71
19196;BMP280;9730;48.926;11.376;2023-01-19T09:50:12;96571.16;;;-0.60
19196;BMP280;9730;48.926;11.376;2023-01-19T09:52:43;96564.66;;;-0.67
19196;BMP280;9730;48.926;11.376;2023-01-19T09:55:19;96574.63;;;-0.72
19196;BMP280;9730;48.926;11.376;2023-01-19T09:57:46;96576.03;;;-0.57
19196;BMP280;9730;48.926;11.376;2023-01-19T10:00:15;96567.84;;;-0.61
19196;BMP280;9730;48.926;11.376;2023-01-19T10:02:43;96559.44;;;-0.53
19196;BMP280;9730;48.926;11.376;2023-01-19T10:05:22;96562.63;;;-0.46
19196;BMP280;9730;48.926;11.376;2023-01-19T10:07:59;96551.63;;;-0.33
19196;BMP280;9730;48.926;11.376;2023-01-19T10:10:31;96541.28;;;-0.53
19196;BMP280;9730;48.926;11.376;2023-01-19T10:13:10;96557.50;;;-0.39
19196;BMP280;9730;48.926;11.376;2023-01-19T10:15:45;96548.34;;;-0.34
19196;BMP280;9730;48.926;11.376;2023-01-19T10:18:17;96542.63;;;-0.36
19196;BMP280;9730;48.926;11.376;2023-01-19T10:20:48;96529.81;;;-0.58
19196;BMP280;9730;48.926;11.376;2023-01-19T10:23:34;96538.59;;;-0.41
19196;BMP280;9730;48.926;11.376;2023-01-19T10:26:06;96535.16;;;-0.34
19196;BMP280;9730;48.926;11.376;2023-01-19T10:28:35;96531.53;;;-0.20
19196;BMP280;9730;48.926;11.376;2023-01-19T10:31:04;96541.22;;;-0.08
19196;BMP280;9730;48.926;11.376;2023-01-19T10:33:32;96529.47;;;0.01
19196;BMP280;9730;48.926;11.376;2023-01-19T10:36:03;96533.22;;;0.19
19196;BMP280;9730;48.926;11.376;2023-01-19T10:38:31;96524.13;;;0.18
19196;BMP280;9730;48.926;11.376;2023-01-19T10:40:59;96523.13;;;0.28
19196;BMP280;9730;48.926;11.376;2023-01-19T10:43:40;96527.69;;;0.46
19196;BMP280;9730;48.926;11.376;2023-01-19T10:46:24;96513.41;;;0.53
19196;BMP280;9730;48.926;11.376;2023-01-19T10:48:53;96504.09;;;0.63
19196;BMP280;9730;48.926;11.376;2023-01-19T10:51:20;96483.94;;;0.76
19196;BMP280;9730;48.926;11.376;2023-01-19T10:53:56;96471.59;;;0.73
19196;BMP280;9730;48.926;11.376;2023-01-19T10:56:26;96473.66;;;0.55
19196;BMP280;9730;48.926;11.376;2023-01-19T10:58:53;96453.81;;;0.88
19196;BMP280;9730;48.926;11.376;2023-01-19T11:01:23;96452.66;;;1.63
19196;BMP280;9730;48.926;11.376;2023-01-19T11:03:51;96441.75;;;2.74
19196;BMP280;9730;48.926;11.376;2023-01-19T11:06:24;96406.97;;;3.66
19196;BMP280;9730;48.926;11.376;2023-01-19T11:08:53;96352.28;;;3.15
19196;BMP280;9730;48.926;11.376;2023-01-19T11:11:40;96317.03;;;4.32
19196;BMP280;9730;48.926;11.376;2023-01-19T11:14:10;96271.16;;;5.11
19196;BMP280;9730;48.926;11.376;2023-01-19T11:16:39;96227.78;;;5.66
19196;BMP280;9730;48.926;11.376;2023-01-19T11:19:25;96187.69;;;6.67
19196;BMP280;9730;48.926;11.376;2023-01-19T11:22:07;96105.75;;;7.44
19196;BMP280;9730;48.926;11.376;2023-01-19T11:24:36;96061.53;;;6.68
19196;BMP280;9730;48.926;11.376;2023-01-19T11:27:03;96034.00;;;7.12
19196;BMP280;9730;48.926;11.376;2023-01-19T11:29:29;96017.09;;;7.16
19196;BMP280;9730;48.926;11.376;2023-01-19T11:32:09;95994.69;;;7.56
19196;BMP280;9730;48.926;11.376;2023-01-19T11:34:36;95988.34;;;7.92
19196;BMP280;9730;48.926;11.376;2023-01-19T11:37:07;95964.66;;;7.40
19196;BMP280;9730;48.926;11.376;2023-01-19T11:39:50;95964.84;;;7.93
19196;BMP280;9730;48.926;11.376;2023-01-19T11:42:18;95936.44;;;7.93
19196;BMP280;9730;48.926;11.376;2023-01-19T11:44:47;95921.63;;;7.88
19196;BMP280;9730;48.926;11.376;2023-01-19T11:47:24;95894.25;;;8.11
19196;BMP280;9730;48.926;11.376;2023-01-19T11:50:03;95855.97;;;8.22
19196;BMP280;9730;48.926;11.376;2023-01-19T11:52:33;95848.59;;;6.09
19196;BMP280;9730;48.926;11.376;2023-01-19T11:55:05;95897.44;;;4.72
19196;BMP280;9730;48.926;11.376;2023-01-19T11:57:36;95960.16;;;5.17
19196;BMP280;9730;48.926;11.376;2023-01-19T12:00:24;95949.03;;;5.39
19196;BMP280;9730;48.926;11.376;2023-01-19T12:02:58;95924.25;;;5.02
19196;BMP280;9730;48.926;11.376;2023-01-19T12:05:30;95950.59;;;5.25
19196;BMP280;9730;48.926;11.376;2023-01-19T12:08:01;95949.56;;;5.61
19196;BMP280;9730;48.926;11.376;2023-01-19T12:10:31;95938.34;;;6.46
19196;BMP280;9730;48.926;11.376;2023-01-19T12:13:00;95924.56;;;6.08
19196;BMP280;9730;48.926;11.376;2023-01-19T12:15:33;95908.41;;;6.14
19196;BMP280;9730;48.926;11.376;2023-01-19T12:18:04;95897.19;;;5.58
19196;BMP280;9730;48.926;11.376;2023-01-19T12:20:35;95907.00;;;5.30
19196;BMP280;9730;48.926;11.376;2023-01-19T12:23:10;95898.19;;;5.23
19196;BMP280;9730;48.926;11.376;2023-01-19T12:25:50;95940.50;;;4.77
19196;BMP280;9730;48.926;11.376;2023-01-19T12:28:19;95963.38;;;4.68
19196;BMP280;9730;48.926;11.376;2023-01-19T12:30:49;95950.53;;;4.23
19196;BMP280;9730;48.926;11.376;2023-01-19T12:33:30;95971.69;;;3.97
19196;BMP280;9730;48.926;11.376;2023-01-19T12:35:59;96001.97;;;4.08
19196;BMP280;9730;48.926;11.376;2023-01-19T12:38:43;96020.72;;;3.79
19196;BMP280;9730;48.926;11.376;2023-01-19T12:41:20;96037.31;;;3.80
19196;BMP280;9730;48.926;11.376;2023-01-19T12:46:40;96043.94;;;3.62
19196;BMP280;9730;48.926;11.376;2023-01-19T12:49:13;96039.94;;;3.58
19196;BMP280;9730;48.926;11.376;2023-01-19T12:51:44;96049.72;;;3.62
19196;BMP280;9730;48.926;11.376;2023-01-19T12:54:19;96051.41;;;3.62
19196;BMP280;9730;48.926;11.376;2023-01-19T12:56:48;96043.50;;;3.52
19196;BMP280;9730;48.926;11.376;2023-01-19T12:59:22;96052.03;;;3.27
19196;BMP280;9730;48.926;11.376;2023-01-19T13:02:29;96055.47;;;3.03
19196;BMP280;9730;48.926;11.376;2023-01-19T13:08:11;96070.41;;;2.83
19196;BMP280;9730;48.926;11.376;2023-01-19T13:16:56;96082.59;;;2.47
19196;BMP280;9730;48.926;11.376;2023-01-19T13:19:35;96096.72;;;2.46
19196;BMP280;9730;48.926;11.376;2023-01-19T13:25:11;96113.38;;;2.44
19196;BMP280;9730;48.926;11.376;2023-01-19T13:27:39;96126.44;;;2.28
19196;BMP280;9730;48.926;11.376;2023-01-19T13:30:11;96121.69;;;2.20
19196;BMP280;9730;48.926;11.376;2023-01-19T13:32:39;96132.09;;;1.84
19196;BMP280;9730;48.926;11.376;2023-01-19T13:35:12;96151.88;;;1.87
19196;BMP280;9730;48.926;11.376;2023-01-19T13:37:42;96162.13;;;2.03
19196;BMP280;9730;48.926;11.376;2023-01-19T13:40:17;96161.22;;;2.05
19196;BMP280;9730;48.926;11.376;2023-01-19T13:42:44;96165.44;;;2.03
19196;BMP280;9730;48.926;11.376;2023-01-19T13:45:16;96169.28;;;2.36
19196;BMP280;9730;48.926;11.376;2023-01-19T13:47:47;96165.38;;;2.29
19196;BMP280;9730;48.926;11.376;2023-01-19T13:50:18;96132.31;;;2.48
19196;BMP280;9730;48.926;11.376;2023-01-19T13:52:46;96137.31;;;2.48
19196;BMP280;9730;48.926;11.376;2023-01-19T13:55:13;96137.44;;;2.44
19196;BMP280;9730;48.926;11.376;2023-01-19T13:57:43;96142.00;;;2.56
19196;BMP280;9730;48.926;11.376;2023-01-19T14:00:16;96129.50;;;2.57
19196;BMP280;9730;48.926;11.376;2023-01-19T14:02:55;96117.97;;;2.55
19196;BMP280;9730;48.926;11.376;2023-01-19T14:05:25;96107.03;;;2.59
19196;BMP280;9730;48.926;11.376;2023-01-19T14:07:59;96096.69;;;2.69
19196;BMP280;9730;48.926;11.376;2023-01-19T14:10:26;96095.88;;;2.68
19196;BMP280;9730;48.926;11.376;2023-01-19T14:13:02;96096.09;;;2.84
19196;BMP280;9730;48.926;11.376;2023-01-19T14:15:32;96088.13;;;2.76
19196;BMP280;9730;48.926;11.376;2023-01-19T14:18:23;96089.97;;;2.71
19196;BMP280;9730;48.926;11.376;2023-01-19T14:20:55;96092.16;;;2.78
19196;BMP280;9730;48.926;11.376;2023-01-19T14:23:45;96086.72;;;2.90
19196;BMP280;9730;48.926;11.376;2023-01-19T14:26:38;96080.88;;;2.91
19196;BMP280;9730;48.926;11.376;2023-01-19T14:29:14;96086.75;;;3.10
19196;BMP280;9730;48.926;11.376;2023-01-19T14:31:43;96082.16;;;3.01
19196;BMP280;9730;48.926;11.376;2023-01-19T14:34:34;96075.41;;;3.03
19196;BMP280;9730;48.926;11.376;2023-01-19T14:37:02;96069.03;;;2.96
19196;BMP280;9730;48.926;11.376;2023-01-19T14:39:31;96067.78;;;2.86
19196;BMP280;9730;48.926;11.376;2023-01-19T14:41:59;96073.94;;;2.78
19196;BMP280;9730;48.926;11.376;2023-01-19T14:44:31;96086.31;;;2.79